Time;durP1;ratioP1;P1;durP2;ratioP2;P2;SDS_P1;SDS_P2;PMS_P1;PMS_P2;Temp;Humidity;BMP_temperature;BMP_pressure;BME280_temperature;BME280_humidity;BME280_pressure;Samples;Min_cycle;Max_cycle;Signal;HPM_P1;HPM_P2
2021/09/06 00:00:07;;;;;;;3.10;2.08;;;;;;;13.79;76.76;95573.59;5106365;28;20458;-66
2021/09/06 00:02:38;;;;;;;5.68;3.38;;;;;;;13.74;77.30;95582.16;5085464;28;20050;-67
2021/09/06 00:05:09;;;;;;;4.70;2.95;;;;;;;13.81;77.52;95576.78;5086780;28;20424;-66
2021/09/06 00:07:38;;;;;;;5.50;2.65;;;;;;;13.67;78.51;95571.81;5086574;28;20044;-66
2021/09/06 00:10:26;;;;;;;4.97;2.75;;;;;;;13.64;79.87;95592.41;5085699;28;20048;-66
2021/09/06 00:12:52;;;;;;;4.20;2.45;;;;;;;13.64;79.98;95592.41;5086020;28;20050;-66
2021/09/06 00:15:19;;;;;;;9.18;2.78;;;;;;;13.62;81.40;95589.25;5086601;28;20032;-66
2021/09/06 00:17:46;;;;;;;4.22;2.72;;;;;;;13.67;81.47;95592.75;5085788;28;20512;-66
2021/09/06 00:20:13;;;;;;;5.32;2.75;;;;;;;13.66;81.94;95592.97;5086139;28;20082;-66
2021/09/06 00:22:40;;;;;;;4.35;3.25;;;;;;;13.61;83.47;95598.13;5088165;28;20048;-66
2021/09/06 00:25:07;;;;;;;7.32;2.85;;;;;;;13.62;84.21;95599.72;5105464;28;20114;-67
2021/09/06 00:27:34;;;;;;;5.05;2.67;;;;;;;13.58;85.74;95588.91;5102538;28;20050;-67
2021/09/06 00:30:04;;;;;;;4.95;3.28;;;;;;;13.64;85.43;95597.66;5085939;28;20382;-67
2021/09/06 00:32:31;;;;;;;5.55;3.22;;;;;;;13.63;85.95;95596.06;5085716;28;20039;-67
2021/09/06 00:34:58;;;;;;;4.18;2.95;;;;;;;13.65;86.28;95594.00;5085873;28;20043;-67
2021/09/06 00:37:25;;;;;;;3.83;2.53;;;;;;;13.58;86.99;95600.16;5084587;28;20075;-67
2021/09/06 00:39:52;;;;;;;4.38;2.60;;;;;;;13.61;87.53;95603.34;5096173;28;20132;-67
2021/09/06 00:42:19;;;;;;;6.55;3.08;;;;;;;13.62;87.45;95600.50;5086410;28;20040;-67
2021/09/06 00:44:46;;;;;;;6.15;3.25;;;;;;;13.65;87.36;95594.00;5085708;28;20041;-66
2021/09/06 00:47:13;;;;;;;4.38;2.88;;;;;;;13.63;87.45;95598.66;5084723;28;20044;-67
2021/09/06 00:49:39;;;;;;;4.22;2.80;;;;;;;13.64;87.62;95595.81;5084735;28;20071;-66
2021/09/06 00:52:07;;;;;;;4.13;2.92;;;;;;;13.55;88.32;95605.84;5085925;28;20043;-67
2021/09/06 00:54:34;;;;;;;6.03;3.10;;;;;;;13.52;89.47;95601.09;5083743;28;20127;-67
2021/09/06 00:57:02;;;;;;;5.43;3.72;;;;;;;13.44;88.92;95598.81;5085897;28;20044;-67
2021/09/06 00:59:29;;;;;;;4.88;2.42;;;;;;;13.56;88.43;95604.84;5084265;28;20040;-67
2021/09/06 01:01:56;;;;;;;4.70;2.90;;;;;;;13.58;87.97;95599.38;5087242;28;20429;-67
2021/09/06 01:04:23;;;;;;;5.03;3.05;;;;;;;13.55;87.77;95605.84;5089668;28;20040;-67
2021/09/06 01:07:10;;;;;;;4.50;3.22;;;;;;;13.43;88.80;95612.91;5089466;28;20048;-67
2021/09/06 01:10:06;;;;;;;6.15;3.70;;;;;;;13.34;89.12;95614.28;5085367;28;20127;-67
2021/09/06 01:12:56;;;;;;;7.13;3.28;;;;;;;13.31;89.29;95604.31;5098641;28;20047;-67
2021/09/06 01:15:22;;;;;;;5.43;3.13;;;;;;;13.33;88.78;95617.97;5108086;28;20031;-67
2021/09/06 01:17:49;;;;;;;6.20;3.83;;;;;;;13.26;90.14;95617.25;5102937;28;20174;-67
2021/09/06 01:20:17;;;;;;;4.60;2.40;;;;;;;13.23;89.73;95609.84;5092515;28;20093;-67
2021/09/06 01:22:50;;;;;;;4.85;2.78;;;;;;;13.31;89.17;95617.38;5103452;28;20513;-67
2021/09/06 01:25:19;;;;;;;9.13;3.33;;;;;;;13.24;89.87;95619.28;5088010;28;20044;-67
2021/09/06 01:27:48;;;;;;;5.20;3.33;;;;;;;13.20;90.30;95618.97;5086852;28;20513;-66
2021/09/06 01:30:20;;;;;;;6.72;3.95;;;;;;;13.18;90.28;95618.34;5088098;28;20048;-67
2021/09/06 01:32:47;;;;;;;4.55;2.80;;;;;;;13.04;91.11;95615.19;5088159;28;20047;-67
2021/09/06 01:35:14;;;;;;;5.72;2.58;;;;;;;13.02;91.57;95622.47;5086461;28;20078;-67
2021/09/06 01:37:48;;;;;;;3.73;2.60;;;;;;;13.01;91.60;95616.44;5088168;28;20040;-67
2021/09/06 01:40:15;;;;;;;4.82;3.25;;;;;;;13.00;92.33;95608.84;5088296;28;20047;-67
2021/09/06 01:42:42;;;;;;;5.85;3.53;;;;;;;13.04;92.02;95617.81;5089285;28;20056;-66
2021/09/06 01:45:09;;;;;;;7.00;3.60;;;;;;;12.98;92.44;95629.16;5088972;28;20032;-66
2021/09/06 01:47:37;;;;;;;3.55;2.35;;;;;;;12.91;92.45;95625.84;5087472;28;20044;-67
2021/09/06 01:50:06;;;;;;;4.95;3.03;;;;;;;12.87;91.92;95625.50;5087744;28;20109;-67
2021/09/06 01:52:47;;;;;;;4.82;3.20;;;;;;;13.01;90.94;95615.63;5088448;28;20067;-66
2021/09/06 01:55:13;;;;;;;5.93;3.35;;;;;;;13.12;89.99;95633.16;5087373;28;20051;-67
2021/09/06 01:57:43;;;;;;;7.15;3.17;;;;;;;13.08;90.50;95624.16;5086477;28;20055;-66
2021/09/06 02:00:13;;;;;;;5.68;3.47;;;;;;;13.15;89.93;95627.47;5087067;28;20051;-67
2021/09/06 02:02:41;;;;;;;5.97;3.10;;;;;;;13.25;88.89;95632.13;5086538;28;20059;-67
2021/09/06 02:05:12;;;;;;;6.57;3.50;;;;;;;13.29;88.24;95627.22;5086537;28;20147;-67
2021/09/06 02:07:43;;;;;;;6.18;3.38;;;;;;;13.34;87.86;95630.00;5087341;28;20071;-67
2021/09/06 02:10:09;;;;;;;4.32;3.15;;;;;;;13.33;87.34;95633.66;5093374;28;20047;-67
2021/09/06 02:12:36;;;;;;;3.97;2.65;;;;;;;13.31;87.21;95631.25;5106724;28;20096;-67
2021/09/06 02:15:05;;;;;;;5.03;3.88;;;;;;;13.28;86.82;95630.88;5106158;28;20040;-67
2021/09/06 02:17:33;;;;;;;5.55;3.33;;;;;;;13.29;86.52;95632.47;5089738;28;20121;-67
2021/09/06 02:20:00;;;;;;;3.92;2.92;;;;;;;13.25;86.94;95631.34;5086787;28;20071;-66
2021/09/06 02:22:26;;;;;;;6.97;3.63;;;;;;;13.18;87.11;95629.63;5087447;28;20036;-67
2021/09/06 02:24:56;;;;;;;5.60;2.92;;;;;;;13.18;86.61;95627.03;5107244;28;20043;-67
2021/09/06 02:27:29;;;;;;;5.28;3.47;;;;;;;13.14;87.24;95631.13;5088819;28;20052;-67
2021/09/06 02:29:59;;;;;;;5.15;3.03;;;;;;;13.11;87.11;95626.34;5107120;28;21809;-67
2021/09/06 02:32:27;;;;;;;5.93;3.22;;;;;;;13.11;87.43;95631.56;5106658;28;20054;-67
2021/09/06 02:35:05;;;;;;;9.73;4.32;;;;;;;13.07;87.57;95629.63;5106814;28;20043;-67
2021/09/06 02:37:33;;;;;;;11.48;4.07;;;;;;;13.08;88.05;95626.78;5106758;28;20096;-67
2021/09/06 02:40:01;;;;;;;4.32;2.72;;;;;;;13.16;87.85;95633.50;5099126;28;20055;-67
2021/09/06 02:42:28;;;;;;;4.07;3.08;;;;;;;13.19;87.13;95639.06;5106290;28;20035;-67
2021/09/06 02:44:57;;;;;;;5.35;3.30;;;;;;;13.14;88.05;95636.34;5105628;28;20043;-67
2021/09/06 02:47:24;;;;;;;5.90;3.35;;;;;;;13.09;87.75;95631.00;5106532;28;20058;-68
2021/09/06 02:49:51;;;;;;;5.72;3.00;;;;;;;13.11;87.84;95631.56;5087721;28;20582;-68
2021/09/06 02:52:22;;;;;;;4.82;3.28;;;;;;;13.22;87.52;95637.00;5086272;28;20044;-68
2021/09/06 02:54:49;;;;;;;4.45;2.67;;;;;;;13.28;87.26;95636.91;5104776;28;20069;-68
2021/09/06 02:57:16;;;;;;;5.07;3.17;;;;;;;13.35;86.93;95642.06;5105208;28;20096;-68
2021/09/06 02:59:46;;;;;;;4.75;3.20;;;;;;;13.42;86.36;95634.91;5105059;28;20136;-68
2021/09/06 03:02:13;;;;;;;5.85;3.33;;;;;;;13.43;86.36;95643.53;5094452;28;20056;-68
2021/09/06 03:04:40;;;;;;;3.95;2.88;;;;;;;13.46;85.99;95643.09;5086723;28;20040;-68
2021/09/06 03:07:08;;;;;;;6.18;3.67;;;;;;;13.50;85.91;95641.59;5106445;28;20063;-68
2021/09/06 03:09:35;;;;;;;5.00;3.35;;;;;;;13.56;86.07;95638.88;5105805;28;20055;-68
2021/09/06 03:12:02;;;;;;;7.03;3.38;;;;;;;13.55;85.29;95642.50;5105962;28;20051;-68
2021/09/06 03:14:31;;;;;;;5.13;3.45;;;;;;;13.47;84.98;95637.63;5106044;28;20048;-68
2021/09/06 03:16:58;;;;;;;20.27;4.40;;;;;;;13.51;85.35;95646.59;5102961;28;20127;-68
2021/09/06 03:19:25;;;;;;;6.47;3.55;;;;;;;13.49;85.14;95643.44;5085670;28;20043;-68
2021/09/06 03:21:55;;;;;;;4.72;3.20;;;;;;;13.42;85.49;95647.97;5085642;28;20425;-68
2021/09/06 03:24:24;;;;;;;5.63;3.10;;;;;;;13.37;86.26;95647.88;5102721;28;20138;-68
2021/09/06 03:26:51;;;;;;;6.07;3.00;;;;;;;13.23;87.76;95651.69;5084298;28;20036;-68
2021/09/06 03:29:18;;;;;;;5.57;3.40;;;;;;;13.14;87.17;95641.59;5085724;28;20048;-68
2021/09/06 03:31:45;;;;;;;5.90;3.00;;;;;;;13.14;87.78;95652.06;5085686;28;20094;-68
2021/09/06 03:34:14;;;;;;;4.72;3.55;;;;;;;13.02;88.82;95659.09;5085366;28;20058;-68
2021/09/06 03:36:44;;;;;;;5.05;3.15;;;;;;;12.84;90.95;95656.53;5085409;28;20402;-68
2021/09/06 03:39:16;;;;;;;3.85;2.53;;;;;;;12.70;93.92;95655.94;5090255;28;20040;-68
2021/09/06 03:41:43;;;;;;;4.75;2.97;;;;;;;12.69;94.18;95649.91;5085915;28;20040;-68
2021/09/06 03:44:12;;;;;;;4.63;2.72;;;;;;;12.67;93.88;95654.56;5095403;28;20048;-68
2021/09/06 03:46:42;;;;;;;5.35;3.15;;;;;;;12.59;95.50;95660.13;5084213;28;20036;-68
2021/09/06 03:49:09;;;;;;;5.45;3.33;;;;;;;12.62;95.53;95659.66;5085631;28;20051;-68
2021/09/06 03:51:38;;;;;;;5.65;3.55;;;;;;;12.67;95.60;95667.63;5090812;28;20494;-68
2021/09/06 03:54:05;;;;;;;6.15;2.67;;;;;;;12.54;96.70;95662.59;5105238;28;20130;-69
2021/09/06 03:56:32;;;;;;;9.18;3.33;;;;;;;12.60;96.83;95666.94;5105224;28;20040;-68
2021/09/06 03:58:58;;;;;;;4.60;2.90;;;;;;;12.70;95.77;95671.63;5087174;28;20044;-68
2021/09/06 04:01:25;;;;;;;5.90;3.70;;;;;;;12.65;95.19;95656.59;5099715;28;20146;-68
2021/09/06 04:03:53;;;;;;;5.88;3.28;;;;;;;12.59;96.03;95670.56;5084756;28;20047;-68
2021/09/06 04:06:20;;;;;;;4.78;2.78;;;;;;;12.62;95.78;95667.50;5084851;28;20036;-68
2021/09/06 04:08:48;;;;;;;5.85;3.70;;;;;;;12.60;96.18;95672.16;5100113;28;20062;-68
2021/09/06 04:11:16;;;;;;;5.03;3.45;;;;;;;12.60;96.50;95682.59;5104738;28;20058;-68
2021/09/06 04:13:44;;;;;;;5.35;3.58;;;;;;;12.56;97.20;95686.69;5104551;28;20043;-68
2021/09/06 04:16:11;;;;;;;5.60;3.33;;;;;;;12.59;97.72;95681.03;5106251;28;20119;-68
2021/09/06 04:18:39;;;;;;;6.10;3.75;;;;;;;12.64;97.70;95678.56;5104975;28;20480;-68
2021/09/06 04:21:06;;;;;;;5.43;3.53;;;;;;;12.58;98.91;95690.66;5104798;28;20105;-68
2021/09/06 04:23:35;;;;;;;6.32;3.55;;;;;;;12.65;98.82;95679.34;5093989;28;20051;-68
2021/09/06 04:26:05;;;;;;;5.72;3.67;;;;;;;12.72;98.37;95696.50;5084561;28;20052;-68
2021/09/06 04:28:39;;;;;;;4.85;2.90;;;;;;;12.80;97.76;95688.38;5084992;28;20047;-68
2021/09/06 04:31:05;;;;;;;6.38;3.28;;;;;;;12.84;97.64;95699.19;5084350;28;20044;-69
2021/09/06 04:33:35;;;;;;;5.85;3.15;;;;;;;12.89;97.47;95691.47;5085092;28;20113;-68
2021/09/06 04:36:02;;;;;;;8.07;3.17;;;;;;;12.92;97.59;95695.44;5090609;28;20040;-68
2021/09/06 04:38:36;;;;;;;5.35;3.50;;;;;;;12.92;96.57;95690.19;5094026;28;20424;-68
2021/09/06 04:41:04;;;;;;;5.80;3.25;;;;;;;13.01;96.37;95694.88;5091175;28;20040;-68
2021/09/06 04:43:32;;;;;;;5.55;3.45;;;;;;;13.04;96.15;95693.66;5107501;28;20036;-68
2021/09/06 04:46:03;;;;;;;4.13;2.88;;;;;;;13.11;96.24;95698.78;5094426;28;20044;-68
2021/09/06 04:48:30;;;;;;;5.43;3.83;;;;;;;13.17;96.91;95698.66;5091561;28;20052;-68
2021/09/06 04:50:57;;;;;;;5.47;3.75;;;;;;;13.19;97.55;95698.44;5091262;28;20044;-69
2021/09/06 04:53:27;;;;;;;4.07;3.45;;;;;;;13.24;97.30;95703.78;5091297;28;20055;-68
2021/09/06 04:55:56;;;;;;;5.60;3.85;;;;;;;13.34;97.41;95711.09;5091077;28;20036;-68
2021/09/06 04:58:24;;;;;;;5.95;3.60;;;;;;;13.37;97.40;95698.34;5090972;28;20036;-68
2021/09/06 05:00:51;;;;;;;4.95;3.25;;;;;;;13.45;97.33;95710.34;5089949;28;20135;-68
2021/09/06 05:03:18;;;;;;;6.38;4.15;;;;;;;13.47;97.13;95695.19;5089046;28;20094;-68
2021/09/06 05:05:45;;;;;;;7.30;4.03;;;;;;;13.61;97.13;95705.41;5103500;28;20080;-68
2021/09/06 05:08:14;;;;;;;7.57;4.22;;;;;;;13.52;97.82;95684.84;5090286;28;20040;-68
2021/09/06 05:10:44;;;;;;;7.13;4.10;;;;;;;13.82;97.27;95710.06;5090642;28;20035;-69
2021/09/06 05:13:11;;;;;;;6.60;3.65;;;;;;;13.92;96.81;95715.53;5090870;28;20517;-68
2021/09/06 05:15:40;;;;;;;5.38;3.45;;;;;;;14.01;96.38;95723.03;5091270;28;20047;-68
2021/09/06 05:18:10;;;;;;;7.28;4.10;;;;;;;14.08;96.25;95723.69;5090504;28;20925;-68
2021/09/06 05:20:39;;;;;;;7.28;4.10;;;;;;;14.14;97.62;95722.78;5090765;28;20047;-69
2021/09/06 05:23:07;;;;;;;8.00;4.50;;;;;;;14.19;98.35;95720.28;5097418;28;20131;-69
2021/09/06 05:25:35;;;;;;;11.95;4.03;;;;;;;14.33;97.37;95721.63;5111283;28;21514;-69
2021/09/06 05:28:03;;;;;;;7.95;3.55;;;;;;;14.34;97.69;95717.94;5109968;28;20062;-69
2021/09/06 05:30:31;;;;;;;6.25;3.72;;;;;;;14.51;96.26;95727.69;5106170;28;20044;-68
2021/09/06 05:32:58;;;;;;;7.28;4.10;;;;;;;14.61;96.45;95722.69;5090849;28;20135;-68
2021/09/06 05:35:25;;;;;;;9.30;5.20;;;;;;;14.66;96.14;95725.41;5090650;28;20052;-68
2021/09/06 05:37:53;;;;;;;9.13;5.10;;;;;;;14.75;96.13;95711.91;5091230;28;20048;-68
2021/09/06 05:40:33;;;;;;;7.68;5.03;;;;;;;14.90;95.73;95717.41;5104150;28;20048;-68
2021/09/06 05:43:00;;;;;;;9.52;4.75;;;;;;;14.94;94.81;95726.41;5088684;28;20054;-69
2021/09/06 05:45:27;;;;;;;7.85;4.95;;;;;;;14.98;94.26;95721.47;5086327;28;20059;-69
2021/09/06 05:47:54;;;;;;;7.20;4.47;;;;;;;15.05;93.59;95725.56;5087107;28;20044;-68
2021/09/06 05:50:21;;;;;;;8.60;4.88;;;;;;;15.20;93.09;95726.84;5087788;28;20820;-69
2021/09/06 05:53:07;;;;;;;10.30;5.72;;;;;;;15.31;92.70;95725.97;5087204;28;20586;-69
2021/09/06 05:55:34;;;;;;;6.03;3.75;;;;;;;15.40;91.52;95729.78;5086201;28;20621;-69
2021/09/06 05:58:01;;;;;;;8.40;3.80;;;;;;;15.48;90.84;95732.03;5086409;28;20040;-68
2021/09/06 06:00:28;;;;;;;5.68;3.60;;;;;;;15.53;90.91;95722.63;5088075;28;20032;-68
2021/09/06 06:02:57;;;;;;;8.15;4.15;;;;;;;15.61;91.33;95730.09;5084772;28;20585;-68
2021/09/06 06:05:24;;;;;;;6.68;4.55;;;;;;;15.62;90.26;95715.94;5086147;28;20044;-68
2021/09/06 06:07:51;;;;;;;7.78;5.68;;;;;;;15.79;90.77;95732.50;5086817;28;20413;-68
2021/09/06 06:10:18;;;;;;;6.40;4.57;;;;;;;15.91;89.71;95729.75;5086844;28;20146;-67
2021/09/06 06:12:49;;;;;;;11.50;6.13;;;;;;;16.02;88.96;95730.69;5088912;28;20044;-68
2021/09/06 06:15:16;;;;;;;9.55;5.32;;;;;;;15.98;88.96;95735.63;5088404;28;20072;-67
2021/09/06 06:17:43;;;;;;;9.25;5.38;;;;;;;16.05;89.28;95730.22;5087723;28;20425;-67
2021/09/06 06:20:12;;;;;;;10.27;5.57;;;;;;;16.22;88.44;95730.97;5086750;28;20093;-67
2021/09/06 06:23:11;;;;;;;9.15;5.72;;;;;;;16.30;85.86;95726.31;5073305;28;20052;-68
2021/09/06 06:26:04;;;;;;;6.05;4.18;;;;;;;16.42;83.35;95729.59;5083892;28;20071;-68
2021/09/06 06:28:31;;;;;;;6.57;4.38;;;;;;;16.48;84.13;95730.47;5084944;28;20051;-68
2021/09/06 06:30:58;;;;;;;10.60;4.90;;;;;;;16.56;85.63;95736.06;5085998;28;20124;-69
2021/09/06 06:33:29;;;;;;;9.70;4.18;;;;;;;16.70;84.19;95743.59;5089730;28;20043;-68
2021/09/06 06:36:02;;;;;;;6.47;4.45;;;;;;;16.79;82.84;95744.72;5106017;28;20031;-68
2021/09/06 06:38:32;;;;;;;6.07;4.05;;;;;;;16.83;83.52;95745.84;5094347;28;20421;-69
2021/09/06 06:41:00;;;;;;;7.70;4.50;;;;;;;16.89;82.12;95744.88;5106077;28;20485;-68
2021/09/06 06:43:37;;;;;;;5.90;3.95;;;;;;;17.00;80.62;95746.56;5107069;28;20532;-69
2021/09/06 06:46:08;;;;;;;7.55;4.70;;;;;;;17.08;80.88;95749.78;5106713;28;20470;-68
2021/09/06 06:48:35;;;;;;;5.75;3.55;;;;;;;17.22;79.98;95758.84;5106884;28;20054;-68
2021/09/06 06:51:17;;;;;;;5.43;3.65;;;;;;;17.41;79.21;95755.84;5093620;28;20479;-68
2021/09/06 06:53:46;;;;;;;8.13;3.80;;;;;;;17.51;77.14;95751.47;5106948;28;20776;-69
2021/09/06 06:56:15;;;;;;;6.72;3.70;;;;;;;17.50;76.49;95746.44;5090576;28;20052;-68
2021/09/06 06:58:42;;;;;;;8.52;4.15;;;;;;;17.58;77.20;95745.97;5105442;28;20040;-68
2021/09/06 07:01:12;;;;;;;6.50;3.85;;;;;;;17.76;76.58;95742.16;5090758;28;20081;-68
2021/09/06 07:03:43;;;;;;;7.07;4.03;;;;;;;17.99;77.38;95754.19;5085260;28;20067;-69
2021/09/06 07:06:10;;;;;;;7.35;3.75;;;;;;;17.98;75.21;95744.69;5086204;28;20040;-68
2021/09/06 07:08:39;;;;;;;7.53;4.25;;;;;;;18.11;75.01;95754.78;5085070;28;20063;-68
2021/09/06 07:11:06;;;;;;;7.70;4.35;;;;;;;18.27;75.64;95741.66;5084654;28;20101;-66
2021/09/06 07:13:34;;;;;;;8.48;4.05;;;;;;;18.49;75.00;95760.75;5098360;28;20071;-67
2021/09/06 07:16:03;;;;;;;6.05;3.60;;;;;;;18.43;74.89;95761.00;5102007;28;20053;-68
2021/09/06 07:18:30;;;;;;;6.82;4.05;;;;;;;18.57;74.11;95769.22;5083306;28;20528;-68
2021/09/06 07:20:57;;;;;;;5.93;3.38;;;;;;;18.72;74.10;95758.72;5083793;28;20123;-68
2021/09/06 07:23:27;;;;;;;5.68;3.88;;;;;;;18.75;75.38;95762.69;5094646;28;20552;-68
2021/09/06 07:25:54;;;;;;;7.10;4.40;;;;;;;18.75;73.59;95758.19;5086933;28;20109;-69
2021/09/06 07:28:21;;;;;;;7.57;3.90;;;;;;;18.70;71.32;95771.38;5085536;28;20036;-69
2021/09/06 07:30:49;;;;;;;5.55;3.65;;;;;;;18.75;73.41;95774.03;5104577;28;20047;-69
2021/09/06 07:33:16;;;;;;;7.13;4.68;;;;;;;18.73;70.52;95782.19;5083701;28;20467;-68
2021/09/06 07:35:43;;;;;;;6.90;4.38;;;;;;;18.79;72.19;95769.81;5084313;28;20040;-68
2021/09/06 07:38:10;;;;;;;6.20;4.05;;;;;;;18.83;72.11;95767.47;5086615;28;20032;-69
2021/09/06 07:40:37;;;;;;;6.13;3.70;;;;;;;18.86;72.46;95759.84;5102196;28;20066;-68
2021/09/06 07:43:04;;;;;;;7.30;4.50;;;;;;;19.12;71.63;95761.72;5104438;28;20039;-69
2021/09/06 07:45:30;;;;;;;4.63;3.53;;;;;;;19.39;67.34;95767.59;5104517;28;20054;-68
2021/09/06 07:47:57;;;;;;;5.03;3.63;;;;;;;19.43;68.88;95767.84;5104369;28;20086;-68
2021/09/06 07:50:46;;;;;;;4.70;3.90;;;;;;;19.74;66.85;95778.44;5098731;28;20040;-69
2021/09/06 07:53:13;;;;;;;5.30;3.88;;;;;;;19.76;66.19;95771.81;5084889;28;20453;-69
2021/09/06 07:55:40;;;;;;;18.98;6.55;;;;;;;19.87;64.84;95772.59;5085509;28;20052;-68
2021/09/06 07:58:07;;;;;;;9.13;3.88;;;;;;;20.13;66.85;95780.47;5085578;28;20036;-68
2021/09/06 08:00:35;;;;;;;5.68;3.92;;;;;;;20.13;65.41;95775.19;5084795;28;20055;-68
2021/09/06 08:03:04;;;;;;;6.47;3.85;;;;;;;20.27;65.61;95759.56;5083794;28;20048;-68
2021/09/06 08:05:34;;;;;;;5.28;3.80;;;;;;;20.27;62.91;95776.22;5083602;28;20117;-66
2021/09/06 08:08:08;;;;;;;5.18;3.25;;;;;;;20.21;64.64;95777.31;5085031;28;20089;-68
2021/09/06 08:10:37;;;;;;;7.22;4.10;;;;;;;20.43;62.93;95775.09;5085073;28;20059;-68
2021/09/06 08:13:04;;;;;;;6.05;3.92;;;;;;;20.59;65.34;95767.13;5084898;28;20040;-69
2021/09/06 08:15:34;;;;;;;5.85;3.88;;;;;;;20.70;62.50;95773.97;5085086;28;20127;-68
2021/09/06 08:18:06;;;;;;;4.55;3.15;;;;;;;20.76;62.39;95767.59;5084524;28;20073;-69
2021/09/06 08:20:42;;;;;;;4.75;2.55;;;;;;;20.72;64.07;95777.13;5084410;28;20072;-69
2021/09/06 08:23:09;;;;;;;5.95;4.78;;;;;;;20.72;59.65;95779.78;5090086;28;20043;-69
2021/09/06 08:25:36;;;;;;;5.20;3.53;;;;;;;20.92;62.13;95778.09;5092485;28;20126;-69
2021/09/06 08:28:08;;;;;;;6.03;3.78;;;;;;;20.66;58.81;95778.22;5083348;28;20061;-68
2021/09/06 08:30:37;;;;;;;6.13;3.85;;;;;;;20.40;60.74;95759.78;5067563;28;20532;-69
2021/09/06 08:33:04;;;;;;;4.90;3.42;;;;;;;20.61;60.61;95757.06;5084250;28;20097;-69
2021/09/06 08:35:32;;;;;;;4.28;2.80;;;;;;;21.00;58.18;95766.94;5089857;28;20036;-70
2021/09/06 08:38:02;;;;;;;6.30;4.00;;;;;;;21.42;60.57;95770.88;5104694;28;20043;-69
2021/09/06 08:40:29;;;;;;;3.70;2.63;;;;;;;21.60;58.88;95773.97;5088524;28;20087;-69
2021/09/06 08:42:58;;;;;;;6.78;3.03;;;;;;;21.74;57.45;95773.03;5083149;28;20073;-69
2021/09/06 08:45:26;;;;;;;4.45;2.58;;;;;;;21.43;57.06;95769.84;5083391;28;20040;-69
2021/09/06 08:47:54;;;;;;;4.93;2.55;;;;;;;21.33;57.24;95775.19;5082037;28;20450;-69
2021/09/06 08:50:21;;;;;;;6.20;3.63;;;;;;;21.33;57.34;95770.69;5084392;28;20044;-69
2021/09/06 08:52:48;;;;;;;3.72;3.00;;;;;;;21.55;56.00;95772.94;5084002;28;20044;-69
2021/09/06 08:55:16;;;;;;;3.85;3.03;;;;;;;21.83;53.53;95761.84;5083643;28;20584;-68
2021/09/06 08:57:47;;;;;;;4.75;3.40;;;;;;;21.82;56.39;95776.16;5084394;28;20048;-69
2021/09/06 09:00:23;;;;;;;4.43;3.10;;;;;;;21.95;56.63;95776.31;5083980;28;20044;-69
2021/09/06 09:03:11;;;;;;;3.60;2.63;;;;;;;21.91;54.76;95777.94;5083301;28;20437;-69
2021/09/06 09:06:09;;;;;;;4.82;3.17;;;;;;;21.79;55.44;95777.53;5066379;28;20698;-69
2021/09/06 09:08:56;;;;;;;4.25;2.63;;;;;;;21.75;55.34;95777.28;5084844;28;20058;-69
2021/09/06 09:12:07;;;;;;;3.97;3.00;;;;;;;22.26;53.89;95768.06;5103620;28;22869;-70
2021/09/06 09:15:03;;;;;;;4.70;3.03;;;;;;;22.86;53.03;95766.81;5076608;28;20052;-69
2021/09/06 09:17:54;;;;;;;4.22;2.95;;;;;;;23.23;49.16;95770.59;5084594;28;20051;-70
2021/09/06 09:20:41;;;;;;;4.40;2.92;;;;;;;23.92;49.89;95770.06;5085806;28;20040;-70
2021/09/06 09:23:48;;;;;;;3.55;2.47;;;;;;;24.33;47.00;95764.00;5073585;28;20865;-70
2021/09/06 09:26:54;;;;;;;4.10;2.63;;;;;;;23.66;45.17;95767.81;5079608;28;20545;-70
2021/09/06 09:29:45;;;;;;;3.83;2.28;;;;;;;23.73;46.30;95757.56;5087688;28;20051;-70
2021/09/06 09:32:41;;;;;;;3.97;2.78;;;;;;;24.53;44.52;95760.94;5075266;28;20075;-70
2021/09/06 09:35:30;;;;;;;3.87;2.40;;;;;;;25.18;41.99;95765.16;5088019;28;20054;-70
2021/09/06 09:38:01;;;;;;;2.20;1.85;;;;;;;25.33;41.70;95761.38;5089594;28;20067;-70
2021/09/06 09:40:42;;;;;;;4.32;1.83;;;;;;;25.62;39.51;95770.81;5105870;28;20492;-70
2021/09/06 09:43:10;;;;;;;3.35;2.08;;;;;;;25.45;38.29;95765.38;5090602;28;20051;-70
2021/09/06 09:45:38;;;;;;;2.90;2.17;;;;;;;25.67;38.59;95767.25;5088362;28;20043;-70
2021/09/06 09:48:13;;;;;;;2.08;1.50;;;;;;;25.99;38.20;95763.53;5090209;28;20040;-68
2021/09/06 09:50:40;;;;;;;3.53;2.35;;;;;;;26.12;39.04;95762.66;5093911;28;20113;-69
2021/09/06 09:53:07;;;;;;;2.70;1.98;;;;;;;26.31;36.76;95746.41;5087181;28;20040;-69
2021/09/06 09:55:35;;;;;;;3.00;1.98;;;;;;;25.87;35.90;95744.59;5087893;28;20032;-69
2021/09/06 09:58:03;;;;;;;4.05;2.30;;;;;;;25.98;37.22;95761.94;5088121;28;20168;-68
2021/09/06 10:00:30;;;;;;;3.20;2.35;;;;;;;25.84;37.65;95755.88;5088192;28;20445;-69
2021/09/06 10:03:00;;;;;;;2.70;2.00;;;;;;;26.05;35.76;95751.63;5087117;28;20036;-69
2021/09/06 10:05:33;;;;;;;4.43;2.55;;;;;;;25.97;39.22;95760.41;5087321;28;20040;-70
2021/09/06 10:08:04;;;;;;;3.92;3.17;;;;;;;26.13;37.72;95766.91;5087390;28;20505;-69
2021/09/06 10:10:39;;;;;;;3.97;2.33;;;;;;;26.12;35.55;95773.31;5088748;28;20036;-69
2021/09/06 10:13:17;;;;;;;4.30;2.45;;;;;;;26.40;35.63;95770.47;5088933;28;20066;-69
2021/09/06 10:15:59;;;;;;;3.22;2.00;;;;;;;26.13;37.46;95769.56;5084156;28;20060;-69
2021/09/06 10:18:38;;;;;;;2.30;1.95;;;;;;;26.64;36.58;95762.06;5087993;28;20451;-69
2021/09/06 10:21:16;;;;;;;2.83;1.67;;;;;;;26.65;38.26;95763.66;5087139;28;20497;-69
2021/09/06 10:23:48;;;;;;;3.03;1.85;;;;;;;26.36;36.82;95761.47;5099497;28;20036;-69
2021/09/06 10:26:17;;;;;;;2.28;1.85;;;;;;;26.30;36.99;95768.06;5107297;28;20528;-69
2021/09/06 10:28:44;;;;;;;2.78;2.00;;;;;;;26.30;37.85;95770.75;5106199;28;20042;-69
2021/09/06 10:31:18;;;;;;;3.15;2.10;;;;;;;26.02;36.93;95762.94;5108010;28;20081;-69
2021/09/06 10:33:57;;;;;;;2.92;2.13;;;;;;;26.46;36.45;95766.53;5097097;28;20055;-69
2021/09/06 10:36:26;;;;;;;3.28;2.22;;;;;;;26.71;36.73;95766.97;5108069;28;20032;-69
2021/09/06 10:39:03;;;;;;;3.42;1.75;;;;;;;26.33;36.84;95772.81;5106170;28;20046;-69
2021/09/06 10:41:30;;;;;;;4.15;2.78;;;;;;;26.21;37.25;95769.91;5108463;28;20035;-70
2021/09/06 10:44:08;;;;;;;3.53;2.20;;;;;;;25.58;37.37;95769.88;5108354;28;20180;-70
2021/09/06 10:46:35;;;;;;;3.60;2.38;;;;;;;25.32;39.14;95773.13;5087217;28;20111;-70
2021/09/06 10:49:05;;;;;;;2.50;1.83;;;;;;;25.60;37.53;95767.69;5087528;28;20044;-69
2021/09/06 10:51:36;;;;;;;2.60;1.92;;;;;;;26.09;39.62;95768.63;5087400;28;20044;-69
2021/09/06 10:54:08;;;;;;;2.47;1.65;;;;;;;26.09;38.90;95778.50;5107922;28;20039;-69
2021/09/06 10:56:37;;;;;;;3.42;2.30;;;;;;;25.95;39.12;95767.94;5088228;28;20052;-69
2021/09/06 10:59:04;;;;;;;4.97;2.60;;;;;;;26.07;38.33;95770.81;5105648;28;20065;-69
2021/09/06 11:01:33;;;;;;;4.35;2.05;;;;;;;26.08;39.25;95777.72;5107724;28;20051;-69
2021/09/06 11:04:01;;;;;;;5.00;2.28;;;;;;;26.70;39.18;95773.41;5094890;28;20044;-69
2021/09/06 11:06:30;;;;;;;2.92;1.90;;;;;;;27.35;36.57;95773.66;5087561;28;20040;-69
2021/09/06 11:09:00;;;;;;;3.10;1.98;;;;;;;27.18;36.88;95766.38;5087022;28;20044;-69
2021/09/06 11:11:30;;;;;;;3.20;2.33;;;;;;;27.71;34.99;95769.81;5087602;28;20028;-69
2021/09/06 11:13:59;;;;;;;5.70;2.58;;;;;;;27.44;35.76;95771.75;5086171;28;20042;-69
2021/09/06 11:16:38;;;;;;;3.40;2.30;;;;;;;27.40;34.45;95765.47;5087290;28;20489;-69
2021/09/06 11:19:11;;;;;;;2.78;1.90;;;;;;;27.12;35.76;95763.09;5086811;28;20047;-69
2021/09/06 11:21:39;;;;;;;3.08;2.08;;;;;;;26.80;36.42;95764.31;5087568;28;20118;-68
2021/09/06 11:24:06;;;;;;;3.67;2.03;;;;;;;26.95;36.33;95771.09;5101626;28;20036;-69
2021/09/06 11:26:34;;;;;;;3.95;2.42;;;;;;;26.72;36.11;95771.19;5089060;28;20148;-69
2021/09/06 11:29:01;;;;;;;3.45;2.53;;;;;;;26.91;37.90;95768.25;5086989;28;20040;-69
2021/09/06 11:31:29;;;;;;;4.43;2.90;;;;;;;26.50;36.21;95775.50;5087011;28;20418;-68
2021/09/06 11:33:59;;;;;;;3.17;2.53;;;;;;;27.05;36.82;95781.47;5085344;28;20459;-69
2021/09/06 11:36:27;;;;;;;8.30;2.58;;;;;;;26.79;37.60;95771.53;5086766;28;20040;-68
2021/09/06 11:38:54;;;;;;;4.13;2.47;;;;;;;26.89;36.88;95763.22;5090437;28;20039;-69
2021/09/06 11:41:23;;;;;;;3.92;2.15;;;;;;;27.07;36.15;95771.25;5106363;28;20047;-68
2021/09/06 11:43:51;;;;;;;2.83;1.80;;;;;;;26.66;36.50;95759.88;5105922;28;20039;-69
2021/09/06 11:46:18;;;;;;;2.80;2.10;;;;;;;27.03;35.97;95765.75;5085025;28;20055;-69
2021/09/06 11:48:47;;;;;;;4.03;2.50;;;;;;;27.24;36.06;95767.78;5086615;28;20043;-69